This is the latest recevied weather packets stored in our database for station/object HF3P-11. If no packets are shown the sender has not sent any weather packets the latest 10 day(s).
| Time | Temp. | Humidity | Pressure | Rain* | Wind** | Luminosity | Snow |
|---|---|---|---|---|---|---|---|
| 1788003000 | 20.56° C | 92% | 1005.5 hPa | 0 mm | - | - | - |
| 1788002701 | 20.56° C | 94% | 1005.7 hPa | 0 mm | - | - | - |
| 1788002392 | 20.56° C | 96% | 1005.5 hPa | 0 mm | - | - | - |
| 1788002102 | 20.56° C | 97% | 1005.5 hPa | 0 mm | - | - | - |
| 1788001792 | 20.56° C | 97% | 1005.5 hPa | 0 mm | - | - | - |
| 1788001501 | 20° C | 99% | 1005.6 hPa | 0 mm | - | - | - |
| 1788001201 | 20° C | 99% | 1005.5 hPa | 0 mm | - | - | - |
| 1788000901 | 19.44° C | 99% | 1005.7 hPa | 0 mm | - | - | - |
| 1788000593 | 19.44° C | 99% | 1005.6 hPa | 0 mm | - | - | - |
| 1788000301 | 19.44° C | 99% | 1005.4 hPa | 0 mm | - | - | - |
| 1787999992 | 18.89° C | 99% | 1005.6 hPa | 0.25 mm | - | - | - |
| 1787999700 | 18.89° C | 99% | 1005.6 hPa | 0.25 mm | - | - | - |
| 1787999392 | 18.89° C | 99% | 1005.4 hPa | 0.25 mm | - | - | - |
| 1787999102 | 18.33° C | 99% | 1005.5 hPa | 0.25 mm | - | - | - |
| 1787998792 | 18.33° C | 99% | 1005.4 hPa | 0.25 mm | - | - | - |
| 1787998502 | 18.33° C | 99% | 1005.6 hPa | 0.25 mm | - | - | - |
| 1787998193 | 18.89° C | 99% | 1005.5 hPa | 0.25 mm | - | - | - |
| 1787997901 | 18.89° C | 99% | 1005.5 hPa | 0.25 mm | - | - | - |
| 1787997592 | 18.89° C | 99% | 1005.5 hPa | 0.25 mm | - | - | - |
| 1787997300 | 18.89° C | 99% | 1005.5 hPa | 0.25 mm | - | - | - |
| 1787996992 | 18.89° C | 99% | 1005.6 hPa | 0.25 mm | - | - | - |
| 1787996702 | 19.44° C | 99% | 1005.4 hPa | 0.25 mm | - | - | - |
| 1787996392 | 19.44° C | 99% | 1005.2 hPa | 0 mm | - | - | - |
| 1787996101 | 19.44° C | 99% | 1005.2 hPa | 0 mm | - | - | - |
| 1787995792 | 19.44° C | 99% | 1005.1 hPa | 0 mm | - | - | - |
* Rain latest hour (hover to see other rain measurements)
** Current wind speed in m/s (hover to see current wind gust speed)